METAR Data
IDs: Format: Raw Decoded Include TAF

Data at: 1354 UTC 26 Feb 2021

LDOS 261330Z 26003KT 210V320 7000 NSC 19/07 Q1025